createdAt,value
2024-01-12T00:00:07.869Z,78.79
2024-01-12T00:02:38.763Z,78.72
2024-01-12T00:05:06.118Z,78.96
2024-01-12T00:07:32.720Z,79.09
2024-01-12T00:09:59.469Z,78.61
2024-01-12T00:12:26.291Z,78.94
2024-01-12T00:14:52.907Z,79.28
2024-01-12T00:17:19.800Z,78.88
2024-01-12T00:19:47.379Z,79.05
2024-01-12T00:22:13.919Z,79.14
2024-01-12T00:24:40.477Z,79.26
2024-01-12T00:27:07.111Z,80.12
2024-01-12T00:29:33.728Z,80.01
2024-01-12T00:32:00.284Z,79.99
2024-01-12T00:34:26.866Z,79.75
2024-01-12T00:36:54.789Z,79.65
2024-01-12T00:39:21.431Z,79.82
2024-01-12T00:41:48.438Z,79.49
2024-01-12T00:44:15.131Z,79.63
2024-01-12T00:46:43.832Z,79.84
2024-01-12T00:49:11.037Z,79.75
2024-01-12T00:51:37.645Z,80.08
2024-01-12T00:54:05.277Z,80.00
2024-01-12T00:56:31.950Z,79.83
2024-01-12T00:58:58.553Z,80.09
2024-01-12T01:01:25.205Z,79.92
2024-01-12T01:03:51.823Z,79.99
2024-01-12T01:06:18.718Z,80.03
2024-01-12T01:08:47.026Z,79.98
2024-01-12T01:11:13.629Z,79.69
2024-01-12T01:13:40.260Z,79.93
2024-01-12T01:16:07.185Z,80.22
2024-01-12T01:18:37.191Z,80.34
2024-01-12T01:21:04.473Z,79.96
2024-01-12T01:23:31.120Z,80.22
2024-01-12T01:25:57.886Z,80.37
2024-01-12T01:28:24.357Z,80.25
2024-01-12T01:30:51.034Z,80.42
2024-01-12T01:33:18.075Z,80.29
2024-01-12T01:35:44.764Z,80.10
2024-01-12T01:38:11.530Z,80.25
2024-01-12T01:40:37.999Z,79.98
2024-01-12T01:43:09.451Z,79.93
2024-01-12T01:45:37.378Z,79.74
2024-01-12T01:48:08.071Z,79.88
2024-01-12T01:50:35.556Z,80.15
2024-01-12T01:53:04.760Z,80.02
2024-01-12T01:55:32.744Z,79.98
2024-01-12T01:58:01.056Z,79.97
2024-01-12T02:00:28.107Z,80.15
2024-01-12T02:02:54.911Z,80.54
2024-01-12T02:05:22.895Z,80.55
2024-01-12T02:07:49.442Z,80.19
2024-01-12T02:10:16.010Z,80.17
2024-01-12T02:12:42.788Z,80.27
2024-01-12T02:15:10.124Z,80.35
2024-01-12T02:17:37.362Z,80.47
2024-01-12T02:20:04.431Z,80.62
2024-01-12T02:22:31.627Z,80.55
2024-01-12T02:24:58.432Z,80.56
2024-01-12T02:27:25.093Z,80.54
2024-01-12T02:29:52.712Z,80.62
2024-01-12T02:32:19.311Z,80.45
2024-01-12T02:34:45.838Z,80.52
2024-01-12T02:37:12.379Z,80.31
2024-01-12T02:39:38.924Z,80.51
2024-01-12T02:42:05.409Z,80.41
2024-01-12T02:44:31.936Z,80.30
2024-01-12T02:46:58.585Z,80.67
2024-01-12T02:49:25.169Z,80.53
2024-01-12T02:51:56.192Z,80.69
2024-01-12T02:54:26.546Z,80.55
2024-01-12T02:56:53.140Z,80.71
2024-01-12T02:59:20.091Z,80.63
2024-01-12T03:01:46.642Z,80.75
2024-01-12T03:04:13.250Z,80.43
2024-01-12T03:06:39.903Z,80.46
2024-01-12T03:09:06.927Z,80.26
2024-01-12T03:11:33.627Z,80.36
2024-01-12T03:14:00.175Z,80.77
2024-01-12T03:16:28.478Z,80.24
2024-01-12T03:18:55.237Z,80.68
2024-01-12T03:21:22.064Z,80.78
2024-01-12T03:23:49.305Z,80.29
2024-01-12T03:26:16.242Z,80.83
2024-01-12T03:28:42.741Z,80.61
2024-01-12T03:31:09.245Z,80.89
2024-01-12T03:33:36.124Z,80.77
2024-01-12T03:36:06.942Z,80.88
2024-01-12T03:38:33.621Z,80.98
2024-01-12T03:41:00.161Z,80.67
2024-01-12T03:43:26.698Z,80.75
2024-01-12T03:45:53.210Z,81.16
2024-01-12T03:48:19.824Z,80.89
2024-01-12T03:50:46.370Z,80.97
2024-01-12T03:53:13.138Z,81.17
2024-01-12T03:55:39.704Z,81.13
2024-01-12T03:58:06.187Z,80.90
2024-01-12T04:00:32.721Z,81.26
2024-01-12T04:02:59.340Z,80.93
2024-01-12T04:05:25.915Z,80.81
2024-01-12T04:07:52.395Z,81.14
2024-01-12T04:10:18.979Z,80.71
2024-01-12T04:12:45.459Z,80.85
2024-01-12T04:15:12.368Z,81.01
2024-01-12T04:17:39.065Z,81.02
2024-01-12T04:20:05.880Z,81.31
2024-01-12T04:22:32.662Z,81.14
2024-01-12T04:24:59.439Z,81.01
2024-01-12T04:27:27.595Z,81.21
2024-01-12T04:29:54.174Z,81.48
2024-01-12T04:32:20.848Z,81.18
2024-01-12T04:34:47.453Z,81.05
2024-01-12T04:37:14.030Z,81.35
2024-01-12T04:39:41.814Z,81.26
2024-01-12T04:42:08.527Z,81.45
2024-01-12T04:44:35.165Z,81.14
2024-01-12T04:47:01.740Z,81.54
2024-01-12T04:49:28.459Z,81.15
2024-01-12T04:51:54.939Z,81.51
2024-01-12T04:54:21.717Z,81.18
2024-01-12T04:56:51.266Z,81.46
2024-01-12T04:59:19.706Z,81.63
2024-01-12T05:01:46.729Z,81.53
2024-01-12T05:04:13.873Z,81.45
2024-01-12T05:06:40.939Z,81.45
2024-01-12T05:09:07.936Z,81.44
2024-01-12T05:11:34.917Z,81.51
2024-01-12T05:14:01.513Z,81.81
2024-01-12T05:16:27.963Z,82.04
2024-01-12T05:18:54.847Z,81.75
2024-01-12T05:21:22.141Z,81.79
2024-01-12T05:23:48.816Z,82.20
2024-01-12T05:26:15.734Z,81.91
2024-01-12T05:28:42.541Z,82.37
2024-01-12T05:31:12.112Z,81.86
2024-01-12T05:33:38.920Z,82.07
2024-01-12T05:36:05.842Z,81.92
2024-01-12T05:38:33.580Z,81.96
2024-01-12T05:41:00.583Z,82.07
2024-01-12T05:43:27.504Z,82.00
2024-01-12T05:45:54.154Z,81.98
2024-01-12T05:48:20.857Z,81.77
2024-01-12T05:50:47.476Z,81.66
2024-01-12T05:53:13.973Z,81.84
2024-01-12T05:55:40.493Z,81.99
2024-01-12T05:58:07.036Z,82.05
2024-01-12T06:00:33.489Z,82.08
2024-01-12T06:03:00.052Z,82.00
2024-01-12T06:05:26.874Z,82.46
2024-01-12T06:07:53.402Z,82.81
2024-01-12T06:10:20.021Z,82.68
2024-01-12T06:12:47.010Z,82.82
2024-01-12T06:15:13.764Z,83.00
2024-01-12T06:17:40.448Z,82.78
2024-01-12T06:20:08.501Z,82.80
2024-01-12T06:22:35.021Z,82.87
2024-01-12T06:25:01.557Z,82.98
2024-01-12T06:27:28.048Z,83.04
2024-01-12T06:29:54.918Z,82.73
2024-01-12T06:32:21.536Z,82.64
2024-01-12T06:34:48.556Z,82.70
2024-01-12T06:37:15.274Z,82.48
2024-01-12T06:39:41.812Z,82.76
2024-01-12T06:42:08.699Z,82.46
2024-01-12T06:44:39.817Z,82.82
2024-01-12T06:47:06.341Z,83.36
2024-01-12T06:49:32.853Z,83.64
2024-01-12T06:51:59.859Z,83.71
2024-01-12T06:54:26.412Z,84.29
2024-01-12T06:56:57.039Z,84.10
2024-01-12T06:59:24.369Z,83.84
2024-01-12T07:01:50.977Z,83.84
2024-01-12T07:04:17.563Z,83.93
2024-01-12T07:06:44.449Z,83.54
2024-01-12T07:09:15.060Z,83.80
2024-01-12T07:11:42.994Z,83.59
2024-01-12T07:14:14.474Z,83.67
2024-01-12T07:16:41.637Z,83.69
2024-01-12T07:19:08.275Z,83.44
2024-01-12T07:21:35.566Z,83.08
2024-01-12T07:24:02.899Z,83.45
2024-01-12T07:26:29.876Z,83.34
2024-01-12T07:28:56.511Z,83.34
2024-01-12T07:31:23.139Z,83.52
2024-01-12T07:33:49.804Z,83.49
2024-01-12T07:36:16.973Z,83.37
2024-01-12T07:38:43.607Z,83.81
2024-01-12T07:41:10.318Z,83.84
2024-01-12T07:43:37.981Z,83.55
2024-01-12T07:46:05.225Z,83.49
2024-01-12T07:48:32.694Z,83.71
2024-01-12T07:50:59.348Z,83.74
2024-01-12T07:53:25.933Z,83.69
2024-01-12T07:55:53.434Z,83.93
2024-01-12T07:58:21.220Z,83.59
2024-01-12T08:00:47.848Z,83.57
2024-01-12T08:03:14.528Z,83.38
2024-01-12T08:05:41.149Z,83.59
2024-01-12T08:08:07.654Z,83.42
2024-01-12T08:10:34.680Z,83.45
2024-01-12T08:13:01.238Z,83.63
2024-01-12T08:15:28.257Z,83.52
2024-01-12T08:17:55.205Z,83.53
2024-01-12T08:20:21.816Z,83.42
2024-01-12T08:22:48.363Z,83.41
2024-01-12T08:25:14.927Z,83.46
2024-01-12T08:27:41.493Z,83.45
2024-01-12T08:30:11.572Z,83.78
2024-01-12T08:32:40.488Z,83.52
2024-01-12T08:35:09.391Z,84.04
2024-01-12T08:37:35.907Z,84.08
2024-01-12T08:40:02.826Z,83.79
2024-01-12T08:42:29.463Z,83.96
2024-01-12T08:44:55.917Z,83.76
2024-01-12T08:47:22.576Z,83.87
2024-01-12T08:49:49.219Z,83.87
2024-01-12T08:52:15.752Z,84.35
2024-01-12T08:54:43.286Z,84.39
2024-01-12T08:57:09.922Z,84.32
2024-01-12T08:59:36.382Z,84.58
2024-01-12T09:02:02.872Z,84.78
2024-01-12T09:04:29.821Z,84.56
2024-01-12T09:06:56.534Z,84.48
2024-01-12T09:09:23.115Z,84.40
2024-01-12T09:11:49.629Z,84.48
2024-01-12T09:14:16.194Z,84.77
2024-01-12T09:16:42.656Z,84.43
2024-01-12T09:19:09.515Z,84.72
2024-01-12T09:21:36.150Z,84.77
2024-01-12T09:24:02.823Z,84.66
2024-01-12T09:26:30.033Z,84.66
2024-01-12T09:28:56.722Z,84.59
2024-01-12T09:31:23.293Z,84.54
2024-01-12T09:33:50.060Z,84.46
2024-01-12T09:36:16.798Z,84.61
2024-01-12T09:38:43.997Z,84.51
2024-01-12T09:41:13.547Z,84.67
2024-01-12T09:43:40.768Z,84.79
2024-01-12T09:46:09.583Z,84.88
2024-01-12T09:48:36.350Z,84.97
2024-01-12T09:51:04.465Z,84.51
2024-01-12T09:53:31.078Z,84.62
2024-01-12T09:56:05.259Z,84.76
2024-01-12T09:58:37.532Z,84.75
2024-01-12T10:01:04.803Z,84.55
2024-01-12T10:03:31.645Z,84.83
2024-01-12T10:05:58.393Z,84.46
2024-01-12T10:08:35.652Z,84.95
2024-01-12T10:11:02.191Z,84.75
2024-01-12T10:13:28.711Z,85.09
2024-01-12T10:15:55.337Z,84.88
2024-01-12T10:18:21.919Z,85.31
2024-01-12T10:20:49.707Z,85.06
2024-01-12T10:23:22.625Z,85.05
2024-01-12T10:26:00.551Z,85.44
2024-01-12T10:28:30.873Z,85.31
2024-01-12T10:30:57.994Z,85.47
2024-01-12T10:33:25.112Z,85.09
2024-01-12T10:36:06.416Z,85.04
2024-01-12T10:38:35.996Z,84.62
2024-01-12T10:41:06.099Z,84.72
2024-01-12T10:43:37.210Z,84.72
2024-01-12T10:46:12.962Z,84.71
2024-01-12T10:48:46.275Z,84.94
2024-01-12T10:51:14.568Z,84.85
2024-01-12T10:53:52.576Z,85.42
2024-01-12T10:56:19.172Z,84.97
2024-01-12T10:58:46.136Z,85.01
2024-01-12T11:01:12.732Z,84.83
2024-01-12T11:03:40.034Z,85.14
2024-01-12T11:06:07.339Z,84.69
2024-01-12T11:08:34.824Z,85.23
2024-01-12T11:11:02.717Z,85.10
2024-01-12T11:13:30.051Z,85.17
2024-01-12T11:15:56.956Z,85.01
2024-01-12T11:18:24.204Z,85.23
2024-01-12T11:21:01.152Z,85.25
2024-01-12T11:23:27.782Z,85.09
2024-01-12T11:25:54.799Z,84.61
2024-01-12T11:28:21.282Z,85.06
2024-01-12T11:30:51.515Z,84.81
2024-01-12T11:33:21.228Z,85.12
2024-01-12T11:35:52.490Z,84.97
2024-01-12T11:38:20.234Z,84.70
2024-01-12T11:40:50.019Z,84.88
2024-01-12T11:43:18.481Z,85.34
2024-01-12T11:45:47.639Z,85.17
2024-01-12T11:48:15.655Z,85.90
2024-01-12T11:50:43.041Z,86.55
2024-01-12T11:53:10.114Z,86.80
2024-01-12T11:55:39.557Z,86.91
2024-01-12T11:58:06.274Z,87.13
2024-01-12T12:00:32.951Z,87.33
2024-01-12T12:02:59.475Z,87.55
2024-01-12T12:05:27.252Z,87.48
2024-01-12T12:07:54.173Z,88.27
2024-01-12T12:10:26.825Z,88.36
2024-01-12T12:12:59.910Z,88.21
2024-01-12T12:15:26.769Z,88.13
2024-01-12T12:17:54.684Z,88.69
2024-01-12T12:20:21.358Z,88.60
2024-01-12T12:22:48.234Z,88.66
2024-01-12T12:25:16.794Z,88.71
2024-01-12T12:27:44.995Z,88.67
2024-01-12T12:30:15.181Z,88.77
2024-01-12T12:32:44.636Z,89.08
2024-01-12T12:35:21.354Z,88.87
2024-01-12T12:40:24.848Z,89.27
2024-01-12T12:42:51.394Z,89.04
2024-01-12T12:45:18.524Z,89.42
2024-01-12T12:47:46.240Z,89.18
2024-01-12T12:50:13.624Z,89.27
2024-01-12T12:52:41.377Z,89.52
2024-01-12T12:55:08.784Z,90.01
2024-01-12T12:57:35.829Z,89.78
2024-01-12T13:00:05.483Z,89.97
2024-01-12T13:02:32.868Z,89.89
2024-01-12T13:04:59.515Z,89.70
2024-01-12T13:07:26.090Z,89.48
2024-01-12T13:09:56.895Z,89.48
2024-01-12T13:12:24.664Z,89.71
2024-01-12T13:14:52.726Z,89.34
2024-01-12T13:17:21.505Z,89.70
2024-01-12T13:19:48.467Z,89.53
2024-01-12T13:22:15.429Z,89.82
2024-01-12T13:24:42.028Z,89.65
2024-01-12T13:27:08.688Z,89.33
2024-01-12T13:29:35.541Z,89.56
2024-01-12T13:32:03.884Z,89.14
2024-01-12T13:34:30.620Z,89.13
2024-01-12T13:37:01.668Z,89.22
2024-01-12T13:39:28.437Z,89.43
2024-01-12T13:41:55.050Z,89.33
2024-01-12T13:44:21.636Z,89.52
2024-01-12T13:46:48.160Z,89.41
2024-01-12T13:49:14.999Z,89.85
2024-01-12T13:51:42.424Z,89.52
2024-01-12T13:54:09.487Z,89.54
2024-01-12T13:56:36.290Z,89.78
2024-01-12T13:59:04.713Z,89.88
2024-01-12T14:01:34.060Z,89.77
2024-01-12T14:04:01.590Z,89.80
2024-01-12T14:06:28.246Z,89.80
2024-01-12T14:08:55.040Z,89.83
2024-01-12T14:11:21.707Z,90.07
2024-01-12T14:13:48.781Z,90.09
2024-01-12T14:16:16.828Z,89.83
2024-01-12T14:18:43.537Z,90.13
2024-01-12T14:21:10.279Z,90.34
2024-01-12T14:23:36.967Z,90.24
2024-01-12T14:26:04.130Z,90.41
2024-01-12T14:28:33.350Z,90.29
2024-01-12T14:31:02.237Z,90.12
2024-01-12T14:33:31.077Z,90.32
2024-01-12T14:35:58.898Z,90.42
2024-01-12T14:38:26.207Z,90.12
2024-01-12T14:40:52.753Z,90.37
2024-01-12T14:43:19.205Z,90.26
2024-01-12T14:45:45.694Z,90.07
2024-01-12T14:48:14.226Z,89.81
2024-01-12T14:50:44.630Z,89.85
2024-01-12T14:53:11.525Z,89.97
2024-01-12T14:55:39.275Z,89.55
2024-01-12T14:58:05.907Z,90.16
2024-01-12T15:00:32.610Z,89.97
2024-01-12T15:02:59.392Z,90.38
2024-01-12T15:05:26.738Z,90.15
2024-01-12T15:07:53.637Z,90.15
2024-01-12T15:10:20.393Z,90.30
2024-01-12T15:12:47.548Z,90.41
2024-01-12T15:15:15.319Z,90.59
2024-01-12T15:17:42.229Z,90.34
2024-01-12T15:20:09.930Z,90.60
2024-01-12T15:22:36.636Z,90.27
2024-01-12T15:25:06.543Z,90.28
2024-01-12T15:27:34.474Z,90.05
2024-01-12T15:30:01.057Z,90.09
2024-01-12T15:32:27.924Z,90.21
2024-01-12T15:34:54.695Z,90.12
2024-01-12T15:37:21.319Z,90.58
2024-01-12T15:39:47.970Z,90.37
2024-01-12T15:42:14.603Z,90.32
2024-01-12T15:44:41.853Z,90.39
2024-01-12T15:47:08.676Z,90.21
2024-01-12T15:49:35.699Z,90.13
2024-01-12T15:52:02.473Z,90.33
2024-01-12T15:54:29.008Z,90.03
2024-01-12T15:56:55.737Z,90.17
2024-01-12T15:59:23.221Z,89.58
2024-01-12T16:01:49.943Z,89.87
2024-01-12T16:04:18.102Z,90.08
2024-01-12T16:06:48.324Z,90.38
2024-01-12T16:09:15.401Z,90.49
2024-01-12T16:11:42.168Z,90.61
2024-01-12T16:14:08.845Z,90.51
2024-01-12T16:16:35.380Z,90.39
2024-01-12T16:19:08.281Z,90.60
2024-01-12T16:21:41.465Z,90.38
2024-01-12T16:24:09.773Z,90.48
2024-01-12T16:26:38.638Z,90.37
2024-01-12T16:29:05.121Z,90.61
2024-01-12T16:31:31.778Z,90.91
2024-01-12T16:33:58.415Z,90.39
2024-01-12T16:36:25.009Z,90.77
2024-01-12T16:38:51.580Z,90.57
2024-01-12T16:41:18.114Z,90.99
2024-01-12T16:43:44.716Z,90.98
2024-01-12T16:46:11.277Z,91.48
2024-01-12T16:48:38.094Z,91.06
2024-01-12T16:51:04.905Z,90.71
2024-01-12T16:53:31.744Z,90.99
2024-01-12T16:55:58.336Z,90.56
2024-01-12T16:58:24.801Z,90.55
2024-01-12T17:00:52.328Z,90.66
2024-01-12T17:03:19.297Z,90.44
2024-01-12T17:05:45.978Z,90.64
2024-01-12T17:08:12.634Z,90.35
2024-01-12T17:10:39.113Z,90.36
2024-01-12T17:13:05.628Z,90.22
2024-01-12T17:15:32.188Z,90.25
2024-01-12T17:17:58.856Z,90.27
2024-01-12T17:20:25.567Z,89.88
2024-01-12T17:22:52.314Z,89.68
2024-01-12T17:25:18.801Z,89.88
2024-01-12T17:27:47.040Z,89.72
2024-01-12T17:30:15.691Z,89.69
2024-01-12T17:32:45.899Z,89.56
2024-01-12T17:35:12.598Z,89.82
2024-01-12T17:37:42.727Z,89.57
2024-01-12T17:40:12.171Z,89.23
2024-01-12T17:42:41.569Z,89.25
2024-01-12T17:45:11.223Z,88.77
2024-01-12T17:47:38.001Z,88.82
2024-01-12T17:50:05.470Z,88.68
2024-01-12T17:52:32.062Z,88.42
2024-01-12T17:54:58.733Z,88.37
2024-01-12T17:57:26.270Z,88.30
2024-01-12T17:59:53.846Z,88.20
2024-01-12T18:02:20.492Z,88.23
2024-01-12T18:04:48.941Z,88.09
2024-01-12T18:07:16.190Z,88.34
2024-01-12T18:09:45.170Z,88.46
2024-01-12T18:12:13.286Z,88.33
2024-01-12T18:14:41.080Z,88.49
2024-01-12T18:17:07.800Z,88.81
2024-01-12T18:19:34.695Z,88.17
2024-01-12T18:22:01.805Z,87.96
2024-01-12T18:24:28.406Z,87.69
2024-01-12T18:26:54.982Z,87.74
2024-01-12T18:29:24.670Z,87.27
2024-01-12T18:31:53.555Z,87.51
2024-01-12T18:34:20.343Z,87.14
2024-01-12T18:36:47.409Z,86.90
2024-01-12T18:39:14.241Z,87.14
2024-01-12T18:41:41.560Z,87.36
2024-01-12T18:44:08.053Z,86.87
2024-01-12T18:46:34.766Z,87.04
2024-01-12T18:49:01.539Z,86.92
2024-01-12T18:51:28.333Z,87.04
2024-01-12T18:53:54.995Z,86.56
2024-01-12T18:56:21.523Z,86.61
2024-01-12T18:58:48.093Z,86.62
2024-01-12T19:01:14.685Z,86.72
2024-01-12T19:03:42.156Z,86.65
2024-01-12T19:06:08.896Z,86.71
2024-01-12T19:08:35.656Z,86.41
2024-01-12T19:11:02.419Z,86.56
2024-01-12T19:13:29.324Z,86.35
2024-01-12T19:15:56.418Z,86.75
2024-01-12T19:18:23.176Z,86.62
2024-01-12T19:20:49.898Z,86.34
2024-01-12T19:23:16.776Z,86.63
2024-01-12T19:25:43.297Z,86.22
2024-01-12T19:28:09.887Z,86.27
2024-01-12T19:30:36.389Z,86.31
2024-01-12T19:33:04.405Z,86.74
2024-01-12T19:35:31.152Z,86.82
2024-01-12T19:37:57.739Z,86.60
2024-01-12T19:40:35.347Z,86.69
2024-01-12T19:43:01.867Z,86.75
2024-01-12T19:45:28.321Z,87.17
2024-01-12T19:47:54.851Z,87.20
2024-01-12T19:50:21.438Z,86.82
2024-01-12T19:52:48.269Z,86.73
2024-01-12T19:55:15.702Z,87.15
2024-01-12T19:57:42.260Z,87.14
2024-01-12T20:00:09.377Z,86.99
2024-01-12T20:02:36.077Z,86.97
2024-01-12T20:05:06.085Z,87.35
2024-01-12T20:07:34.451Z,87.68
2024-01-12T20:10:01.960Z,87.95
2024-01-12T20:12:32.343Z,87.55
2024-01-12T20:14:58.965Z,87.79
2024-01-12T20:17:25.788Z,87.92
2024-01-12T20:19:54.487Z,87.40
2024-01-12T20:22:21.190Z,88.05
2024-01-12T20:24:47.680Z,88.11
2024-01-12T20:27:14.268Z,87.91
2024-01-12T20:29:42.273Z,88.22
2024-01-12T20:32:08.738Z,88.02
2024-01-12T20:34:35.649Z,87.84
2024-01-12T20:37:02.751Z,88.22
2024-01-12T20:39:29.292Z,88.01
2024-01-12T20:41:56.204Z,88.22
2024-01-12T20:44:22.878Z,88.44
2024-01-12T20:46:49.382Z,88.06
2024-01-12T20:49:16.150Z,87.95
2024-01-12T20:51:42.659Z,88.18
2024-01-12T20:54:10.118Z,88.13
2024-01-12T20:56:37.052Z,87.95
2024-01-12T20:59:03.699Z,87.71
2024-01-12T21:01:30.479Z,87.58
2024-01-12T21:03:57.259Z,87.81
2024-01-12T21:06:23.945Z,87.66
2024-01-12T21:08:50.859Z,87.61
2024-01-12T21:11:17.503Z,87.50
2024-01-12T21:13:44.050Z,87.80
2024-01-12T21:16:10.694Z,87.70
2024-01-12T21:18:37.605Z,87.78
2024-01-12T21:21:05.285Z,87.61
2024-01-12T21:23:32.558Z,87.04
2024-01-12T21:25:59.036Z,87.05
2024-01-12T21:28:25.580Z,87.22
2024-01-12T21:30:52.213Z,87.33
2024-01-12T21:33:20.039Z,87.30
2024-01-12T21:35:46.785Z,87.24
2024-01-12T21:38:13.447Z,87.02
2024-01-12T21:40:39.991Z,87.34
2024-01-12T21:43:06.584Z,87.01
2024-01-12T21:45:33.030Z,87.51
2024-01-12T21:47:59.963Z,87.11
2024-01-12T21:50:26.497Z,86.94
2024-01-12T21:52:53.000Z,87.14
2024-01-12T21:55:19.436Z,87.15
2024-01-12T21:57:46.633Z,87.20
2024-01-12T22:00:15.069Z,87.16
2024-01-12T22:02:41.678Z,87.48
2024-01-12T22:05:10.703Z,87.52
2024-01-12T22:07:37.830Z,86.96
2024-01-12T22:10:06.620Z,87.45
2024-01-12T22:12:33.338Z,87.41
2024-01-12T22:15:00.336Z,87.38
2024-01-12T22:17:27.016Z,87.30
2024-01-12T22:19:54.802Z,87.51
2024-01-12T22:22:21.527Z,87.43
2024-01-12T22:24:49.360Z,87.51
2024-01-12T22:27:15.871Z,87.68
2024-01-12T22:29:42.473Z,87.30
2024-01-12T22:32:10.253Z,87.44
2024-01-12T22:34:36.824Z,87.54
2024-01-12T22:37:04.141Z,87.60
2024-01-12T22:39:30.772Z,87.52
2024-01-12T22:41:57.276Z,87.65
2024-01-12T22:44:25.336Z,87.42
2024-01-12T22:46:52.935Z,87.72
2024-01-12T22:49:19.734Z,87.60
2024-01-12T22:51:46.341Z,87.48
2024-01-12T22:54:12.971Z,87.58
2024-01-12T22:56:39.585Z,87.73
2024-01-12T22:59:06.101Z,87.82
2024-01-12T23:01:32.628Z,87.81
2024-01-12T23:03:59.283Z,88.00
2024-01-12T23:06:25.965Z,88.13
2024-01-12T23:08:54.378Z,88.10
2024-01-12T23:11:20.972Z,88.01
2024-01-12T23:13:47.485Z,88.02
2024-01-12T23:16:13.972Z,87.89
2024-01-12T23:18:40.712Z,87.98
2024-01-12T23:21:07.291Z,87.82
2024-01-12T23:23:33.910Z,88.08
2024-01-12T23:26:00.582Z,87.44
2024-01-12T23:28:27.256Z,87.70
2024-01-12T23:30:53.997Z,87.56
2024-01-12T23:33:20.840Z,87.55
2024-01-12T23:35:47.587Z,87.47
2024-01-12T23:38:18.836Z,87.55
2024-01-12T23:40:52.430Z,87.05
2024-01-12T23:43:18.943Z,87.01
2024-01-12T23:45:48.825Z,87.28
2024-01-12T23:48:26.982Z,87.07
2024-01-12T23:50:57.680Z,87.22
2024-01-12T23:53:24.735Z,86.74
2024-01-12T23:55:51.447Z,86.79
2024-01-12T23:58:26.213Z,87.17
